Time;durP1;ratioP1;P1;durP2;ratioP2;P2;SDS_P1;SDS_P2;PMS_P1;PMS_P2;Temp;Humidity;BMP_temperature;BMP_pressure;BME280_temperature;BME280_humidity;BME280_pressure;Samples;Min_cycle;Max_cycle;Signal;HPM_P1;HPM_P2
2022/09/21 00:01:15;;;;;;;0.50;0.50;;;;;;;13.48;79.76;99499.94;5091859;28;20203;-68
2022/09/21 00:03:42;;;;;;;0.50;0.50;;;;;;;13.49;79.29;99504.19;5092052;28;20203;-68
2022/09/21 00:06:11;;;;;;;0.50;0.50;;;;;;;13.39;79.13;99487.44;5091660;28;20195;-67
2022/09/21 00:08:39;;;;;;;0.50;0.50;;;;;;;13.44;79.36;99500.97;5093035;28;20203;-68
2022/09/21 00:11:06;;;;;;;0.50;0.50;;;;;;;13.49;79.51;99500.78;5092531;28;20253;-68
2022/09/21 00:13:36;;;;;;;0.47;0.47;;;;;;;13.46;79.33;99500.91;5092242;28;20215;-68
2022/09/21 00:16:06;;;;;;;0.40;0.40;;;;;;;13.46;79.33;99490.59;5092416;28;20310;-68
2022/09/21 00:18:34;;;;;;;0.57;0.57;;;;;;;13.51;78.59;99499.81;5091851;28;20286;-68
2022/09/21 00:21:01;;;;;;;0.40;0.40;;;;;;;13.42;79.30;99505.34;5090794;28;20663;-68
2022/09/21 00:23:28;;;;;;;0.43;0.43;;;;;;;13.17;79.94;99478.91;5092251;28;20195;-68
2022/09/21 00:26:05;;;;;;;0.40;0.40;;;;;;;13.16;79.92;99487.50;5092400;28;20207;-68
2022/09/21 00:28:32;;;;;;;0.60;0.60;;;;;;;13.20;79.91;99509.66;5092398;28;20199;-68
2022/09/21 00:31:03;;;;;;;0.50;0.50;;;;;;;13.17;80.13;99504.63;5092367;28;20205;-68
2022/09/21 00:33:30;;;;;;;0.40;0.40;;;;;;;13.15;79.77;99502.13;5092099;28;20260;-68
2022/09/21 00:36:01;;;;;;;0.40;0.40;;;;;;;13.16;80.19;99500.38;5090258;28;20230;-68
2022/09/21 00:38:28;;;;;;;0.40;0.40;;;;;;;13.12;79.94;99502.22;5092101;28;20211;-68
2022/09/21 00:40:54;;;;;;;0.40;0.40;;;;;;;13.11;80.49;99492.00;5092042;28;20203;-68
2022/09/21 00:43:21;;;;;;;0.47;0.47;;;;;;;13.15;80.10;99494.38;5092095;28;20199;-68
2022/09/21 00:45:50;;;;;;;0.40;0.40;;;;;;;13.15;80.07;99490.97;5091946;28;20583;-68
2022/09/21 00:48:19;;;;;;;0.40;0.40;;;;;;;13.11;81.11;99479.16;5091571;28;20192;-68
2022/09/21 00:50:50;;;;;;;0.47;0.47;;;;;;;13.15;80.65;99475.53;5091962;28;20199;-68
2022/09/21 00:53:17;;;;;;;0.40;0.40;;;;;;;13.29;80.40;99499.00;5092200;28;20609;-68
2022/09/21 00:55:49;;;;;;;0.43;0.43;;;;;;;13.28;80.46;99494.75;5090639;28;20289;-68
2022/09/21 00:58:21;;;;;;;0.50;0.50;;;;;;;13.35;80.43;99493.59;5091868;28;20728;-68
2022/09/21 01:00:48;;;;;;;0.40;0.40;;;;;;;13.41;79.82;99498.50;5091036;28;20199;-68
2022/09/21 01:03:15;;;;;;;0.50;0.50;;;;;;;13.42;79.88;99500.19;5089360;28;20203;-68
2022/09/21 01:05:43;;;;;;;0.50;0.50;;;;;;;13.47;79.80;99497.44;5091250;28;20211;-68
2022/09/21 01:08:11;;;;;;;0.60;0.60;;;;;;;13.51;79.77;99492.09;5091654;28;20200;-68
2022/09/21 01:10:56;;;;;;;0.40;0.40;;;;;;;13.56;79.81;99497.06;5091392;28;20282;-68
2022/09/21 01:13:33;;;;;;;0.40;0.40;;;;;;;13.59;79.21;99491.78;5091373;28;20441;-68
2022/09/21 01:16:08;;;;;;;0.50;0.50;;;;;;;13.54;79.42;99480.81;5091519;28;20264;-68
2022/09/21 01:18:46;;;;;;;0.40;0.40;;;;;;;13.61;79.07;99492.56;5090529;28;20198;-68
2022/09/21 01:21:21;;;;;;;0.50;0.50;;;;;;;13.58;78.82;99490.09;5091267;28;20286;-68
2022/09/21 01:24:18;;;;;;;0.40;0.40;;;;;;;13.56;78.64;99477.31;5091293;28;20616;-68
2022/09/21 01:27:16;;;;;;;0.50;0.50;;;;;;;13.60;78.82;99483.97;5089807;28;20205;-68
2022/09/21 01:29:50;;;;;;;0.50;0.50;;;;;;;13.56;78.84;99477.31;5091000;28;20199;-68
2022/09/21 01:32:22;;;;;;;0.67;0.67;;;;;;;13.54;78.73;99478.25;5091566;28;20198;-68
2022/09/21 01:34:54;;;;;;;0.43;0.43;;;;;;;13.48;79.05;99468.19;5091201;28;20765;-68
2022/09/21 01:37:26;;;;;;;0.50;0.50;;;;;;;13.46;78.88;99476.00;5090964;28;20242;-68
2022/09/21 01:39:59;;;;;;;0.40;0.40;;;;;;;13.25;78.69;99453.69;5090743;28;20201;-68
2022/09/21 01:42:30;;;;;;;0.40;0.40;;;;;;;13.19;79.49;99446.19;5091233;28;20199;-68
2022/09/21 01:45:01;;;;;;;0.30;0.30;;;;;;;13.35;79.21;99461.88;5090832;28;20750;-68
2022/09/21 01:47:30;;;;;;;0.57;0.57;;;;;;;13.35;79.03;99467.00;5090714;28;20196;-68
2022/09/21 01:50:01;;;;;;;0.50;0.50;;;;;;;13.30;78.68;99464.66;5090604;28;20588;-68
2022/09/21 01:52:33;;;;;;;0.40;0.40;;;;;;;13.33;79.13;99469.66;5091175;28;20200;-68
2022/09/21 01:55:06;;;;;;;0.50;0.50;;;;;;;13.30;79.29;99464.66;5091169;28;20192;-68
2022/09/21 01:57:40;;;;;;;0.40;0.40;;;;;;;13.33;79.00;99461.09;5090759;28;20215;-68
2022/09/21 02:00:09;;;;;;;0.43;0.43;;;;;;;13.37;78.19;99460.94;5089812;28;20706;-68
2022/09/21 02:02:41;;;;;;;0.33;0.33;;;;;;;13.45;78.69;99461.44;5089804;28;20222;-68
2022/09/21 02:05:08;;;;;;;0.40;0.40;;;;;;;13.52;78.04;99460.28;5090854;28;20195;-68
2022/09/21 02:07:38;;;;;;;0.67;0.67;;;;;;;13.63;77.44;99468.41;5090929;28;20656;-68
2022/09/21 02:10:08;;;;;;;0.47;0.47;;;;;;;13.71;77.59;99462.09;5091021;28;20195;-68
2022/09/21 02:12:35;;;;;;;0.50;0.50;;;;;;;13.81;77.38;99476.28;5090581;28;20199;-68
2022/09/21 02:15:03;;;;;;;0.30;0.30;;;;;;;13.85;76.68;99470.09;5093417;28;20197;-67
2022/09/21 02:17:37;;;;;;;0.50;0.50;;;;;;;13.90;77.00;99470.72;5093593;28;20220;-68
2022/09/21 02:20:16;;;;;;;0.40;0.40;;;;;;;13.87;76.77;99463.13;5094548;28;20194;-68
2022/09/21 02:22:57;;;;;;;0.40;0.40;;;;;;;13.88;77.10;99468.22;5095083;28;20286;-68
2022/09/21 02:25:36;;;;;;;0.40;0.40;;;;;;;13.86;77.12;99469.19;5094740;28;20207;-68
2022/09/21 02:28:10;;;;;;;0.40;0.40;;;;;;;13.83;77.45;99471.91;5094710;28;20195;-68
2022/09/21 02:30:40;;;;;;;0.40;0.40;;;;;;;13.85;77.47;99473.50;5094951;28;20616;-68
2022/09/21 02:33:12;;;;;;;0.47;0.47;;;;;;;13.88;77.38;99477.69;5094803;28;20199;-68
2022/09/21 02:35:48;;;;;;;0.40;0.40;;;;;;;13.95;77.89;99479.13;5094585;28;20191;-68
2022/09/21 02:38:25;;;;;;;0.40;0.40;;;;;;;13.98;77.78;99481.56;5094215;28;20226;-68
2022/09/21 02:40:53;;;;;;;0.40;0.40;;;;;;;14.03;77.74;99477.03;5094567;28;20203;-68
2022/09/21 02:43:26;;;;;;;0.40;0.40;;;;;;;14.06;77.76;99476.91;5094101;28;20200;-68
2022/09/21 02:45:58;;;;;;;0.60;0.60;;;;;;;14.12;77.32;99481.78;5094373;28;20713;-68
2022/09/21 02:48:33;;;;;;;0.40;0.40;;;;;;;14.16;77.54;99483.34;5093506;28;20253;-68
2022/09/21 02:51:06;;;;;;;0.47;0.47;;;;;;;14.16;77.74;99478.19;5094294;28;20285;-68
2022/09/21 02:53:36;;;;;;;0.50;0.50;;;;;;;14.16;78.04;99483.34;5094125;28;20222;-68
2022/09/21 02:56:06;;;;;;;0.50;0.50;;;;;;;14.19;78.00;99478.03;5092993;28;20204;-68
2022/09/21 02:58:36;;;;;;;0.50;0.50;;;;;;;14.24;78.23;99470.97;5092845;28;20221;-68
2022/09/21 03:01:07;;;;;;;0.40;0.40;;;;;;;14.21;78.71;99468.53;5093813;28;20637;-68
2022/09/21 03:03:35;;;;;;;0.40;0.40;;;;;;;14.20;78.13;99479.72;5093978;28;20198;-68
2022/09/21 03:06:02;;;;;;;0.40;0.40;;;;;;;14.18;78.76;99482.38;5093937;28;20207;-68
2022/09/21 03:08:29;;;;;;;0.50;0.50;;;;;;;14.23;78.46;99481.31;5093859;28;20249;-68
2022/09/21 03:10:57;;;;;;;0.40;0.40;;;;;;;14.25;78.93;99488.09;5093852;28;20195;-68
2022/09/21 03:13:24;;;;;;;0.30;0.30;;;;;;;14.29;78.42;99486.22;5093692;28;20255;-68
2022/09/21 03:15:58;;;;;;;0.50;0.50;;;;;;;14.23;78.10;99479.59;5093288;28;20682;-68
2022/09/21 03:18:25;;;;;;;0.40;0.40;;;;;;;14.20;77.72;99490.03;5093594;28;20219;-68
2022/09/21 03:20:53;;;;;;;0.50;0.50;;;;;;;14.17;78.30;99492.75;5093592;28;20253;-68
2022/09/21 03:23:20;;;;;;;0.50;0.50;;;;;;;14.13;78.63;99489.47;5093457;28;20199;-68
2022/09/21 03:25:47;;;;;;;0.43;0.43;;;;;;;14.09;78.90;99487.06;5093325;28;20203;-68
2022/09/21 03:28:15;;;;;;;0.50;0.50;;;;;;;13.99;79.24;99485.81;5093443;28;20199;-68
2022/09/21 03:30:42;;;;;;;0.57;0.57;;;;;;;13.91;79.97;99487.88;5093548;28;20203;-68
2022/09/21 03:33:11;;;;;;;0.40;0.40;;;;;;;13.80;80.91;99490.03;5092781;28;20556;-68
2022/09/21 03:35:38;;;;;;;0.60;0.60;;;;;;;13.66;81.78;99493.22;5093457;28;20226;-68
2022/09/21 03:38:07;;;;;;;0.40;0.40;;;;;;;13.60;82.33;99489.13;5093388;28;20219;-68
2022/09/21 03:40:33;;;;;;;0.50;0.50;;;;;;;13.51;83.23;99483.53;5093352;28;20286;-68
2022/09/21 03:43:00;;;;;;;0.40;0.40;;;;;;;13.48;83.22;99494.78;5093174;28;20191;-68
2022/09/21 03:45:27;;;;;;;0.40;0.40;;;;;;;13.42;83.04;99479.59;5093242;28;20264;-68
2022/09/21 03:47:56;;;;;;;0.40;0.40;;;;;;;13.53;83.23;99492.03;5092628;28;20192;-68
2022/09/21 03:50:23;;;;;;;0.40;0.40;;;;;;;13.55;82.71;99496.22;5093521;28;20269;-68
2022/09/21 03:52:50;;;;;;;0.40;0.40;;;;;;;13.54;82.60;99486.81;5093086;28;20199;-68
2022/09/21 03:55:18;;;;;;;0.40;0.40;;;;;;;13.62;82.71;99492.50;5091866;28;20199;-68
2022/09/21 03:57:45;;;;;;;0.50;0.50;;;;;;;13.67;82.76;99493.13;5091517;28;20227;-68
2022/09/21 04:00:13;;;;;;;0.60;0.60;;;;;;;13.60;82.31;99478.84;5092827;28;20200;-68
2022/09/21 04:02:40;;;;;;;0.47;0.47;;;;;;;13.72;82.27;99498.13;5092823;28;20675;-68
2022/09/21 04:05:09;;;;;;;0.50;0.50;;;;;;;13.78;81.88;99497.00;5092608;28;20197;-68
2022/09/21 04:07:36;;;;;;;0.30;0.30;;;;;;;13.79;82.34;99503.84;5087090;28;20193;-68
2022/09/21 04:10:05;;;;;;;0.47;0.47;;;;;;;13.83;82.24;99501.06;5092377;28;20196;-68
2022/09/21 04:12:35;;;;;;;0.60;0.60;;;;;;;13.86;82.28;99503.50;5092357;28;20294;-68
2022/09/21 04:15:04;;;;;;;0.40;0.40;;;;;;;13.90;82.68;99499.06;5092566;28;20198;-68
2022/09/21 04:17:31;;;;;;;0.40;0.40;;;;;;;13.94;82.30;99498.03;5092315;28;20214;-68
2022/09/21 04:19:57;;;;;;;0.47;0.47;;;;;;;13.94;82.25;99508.34;5092711;28;20303;-68
2022/09/21 04:22:24;;;;;;;0.53;0.53;;;;;;;13.95;81.65;99515.19;5092710;28;20556;-68
2022/09/21 04:24:51;;;;;;;0.40;0.40;;;;;;;13.98;81.33;99515.06;5092721;28;20200;-68
2022/09/21 04:27:18;;;;;;;0.40;0.40;;;;;;;13.98;81.24;99509.91;5092301;28;20188;-68
2022/09/21 04:29:47;;;;;;;0.40;0.40;;;;;;;13.97;81.27;99518.53;5092162;28;20207;-68
2022/09/21 04:32:14;;;;;;;0.47;0.47;;;;;;;13.89;82.62;99510.31;5092569;28;20682;-68
2022/09/21 04:34:41;;;;;;;0.50;0.50;;;;;;;13.84;82.57;99512.22;5092285;28;20191;-68
2022/09/21 04:37:10;;;;;;;0.50;0.50;;;;;;;13.83;82.36;99510.56;5086669;28;20832;-68
2022/09/21 04:39:36;;;;;;;0.40;0.40;;;;;;;13.86;82.46;99510.44;5092610;28;20675;-68
2022/09/21 04:42:04;;;;;;;0.60;0.60;;;;;;;13.82;82.62;99511.47;5092150;28;20674;-68
2022/09/21 04:44:30;;;;;;;0.40;0.40;;;;;;;13.85;83.33;99513.91;5092297;28;20222;-69
2022/09/21 04:46:59;;;;;;;0.30;0.30;;;;;;;13.89;83.24;99512.88;5092291;28;20200;-68
2022/09/21 04:49:26;;;;;;;0.30;0.30;;;;;;;13.90;83.68;99514.53;5091924;28;20195;-68
2022/09/21 04:51:53;;;;;;;0.40;0.40;;;;;;;13.91;83.84;99513.63;5091120;28;20217;-68
2022/09/21 04:54:19;;;;;;;0.50;0.50;;;;;;;13.85;84.12;99519.06;5089331;28;20203;-70
2022/09/21 04:56:46;;;;;;;0.47;0.47;;;;;;;13.76;84.44;99506.56;5091858;28;20214;-69
2022/09/21 04:59:13;;;;;;;0.40;0.40;;;;;;;13.78;84.89;99518.47;5091576;28;20215;-68
2022/09/21 05:01:40;;;;;;;0.40;0.40;;;;;;;13.77;85.26;99518.53;5092034;28;20203;-68
2022/09/21 05:04:08;;;;;;;0.50;0.50;;;;;;;13.78;85.55;99522.78;5091590;28;20206;-68
2022/09/21 05:06:35;;;;;;;0.30;0.30;;;;;;;13.69;85.88;99511.13;5091442;28;20199;-68
2022/09/21 05:11:45;;;;;;;0.40;0.40;;;;;;;13.72;85.38;99512.72;5091898;28;20209;-68
2022/09/21 05:14:12;;;;;;;0.47;0.47;;;;;;;13.65;85.29;99501.84;5090397;28;20215;-68
2022/09/21 05:16:39;;;;;;;0.40;0.40;;;;;;;13.69;85.79;99511.13;5091630;28;20683;-68
2022/09/21 05:19:07;;;;;;;0.40;0.40;;;;;;;13.71;84.71;99511.03;5091258;28;20273;-68
2022/09/21 05:21:35;;;;;;;0.40;0.40;;;;;;;13.77;85.07;99515.94;5091615;28;20195;-68
2022/09/21 05:24:02;;;;;;;0.40;0.40;;;;;;;13.80;85.08;99520.97;5091560;28;20210;-68
2022/09/21 05:26:29;;;;;;;0.50;0.50;;;;;;;13.84;84.38;99512.22;5091458;28;20198;-68
2022/09/21 05:28:56;;;;;;;0.43;0.43;;;;;;;13.89;84.35;99518.88;5086785;28;20744;-68
2022/09/21 05:31:40;;;;;;;0.50;0.50;;;;;;;13.92;85.86;99515.31;5091085;28;20257;-67
2022/09/21 05:34:28;;;;;;;0.40;0.40;;;;;;;13.91;84.48;99503.34;5091339;28;20203;-68
2022/09/21 05:37:01;;;;;;;0.50;0.50;;;;;;;14.04;84.43;99515.66;5089147;28;20207;-69
2022/09/21 05:39:28;;;;;;;0.50;0.50;;;;;;;14.10;84.80;99514.53;5089631;28;20195;-68
2022/09/21 05:41:55;;;;;;;0.47;0.47;;;;;;;14.13;83.76;99514.41;5091088;28;20595;-68
2022/09/21 05:44:23;;;;;;;0.50;0.50;;;;;;;14.22;84.00;99513.19;5091083;28;20192;-68
2022/09/21 05:46:55;;;;;;;0.47;0.47;;;;;;;14.33;83.40;99508.41;5090952;28;20213;-68
2022/09/21 05:49:37;;;;;;;0.40;0.40;;;;;;;14.40;83.40;99508.09;5089951;28;20191;-68
2022/09/21 05:52:11;;;;;;;0.40;0.40;;;;;;;14.48;83.62;99503.44;5088593;28;20196;-68
2022/09/21 05:54:48;;;;;;;0.50;0.50;;;;;;;14.56;82.11;99508.25;5090079;28;20637;-68
2022/09/21 05:57:24;;;;;;;0.40;0.40;;;;;;;14.61;81.70;99507.13;5087691;28;20202;-68
2022/09/21 06:00:02;;;;;;;0.30;0.30;;;;;;;14.71;81.20;99507.56;5091114;28;20203;-68
2022/09/21 06:02:46;;;;;;;0.50;0.50;;;;;;;14.80;81.15;99503.75;5090728;28;20209;-68
2022/09/21 06:05:16;;;;;;;0.33;0.33;;;;;;;14.90;79.82;99507.56;5091128;28;20196;-68
2022/09/21 06:07:43;;;;;;;0.60;0.60;;;;;;;14.90;80.54;99512.72;5089927;28;20192;-68
2022/09/21 06:10:11;;;;;;;0.50;0.50;;;;;;;14.94;79.60;99509.09;5091010;28;20228;-68
2022/09/21 06:12:38;;;;;;;0.50;0.50;;;;;;;14.97;79.35;99521.84;5090470;28;20203;-68
2022/09/21 06:15:07;;;;;;;0.40;0.40;;;;;;;15.02;79.21;99515.59;5091023;28;20195;-68
2022/09/21 06:17:33;;;;;;;0.50;0.50;;;;;;;15.03;79.21;99519.84;5089529;28;20328;-64
2022/09/21 06:20:01;;;;;;;0.50;0.50;;;;;;;15.10;77.97;99516.06;5091134;28;20250;-64
2022/09/21 06:22:29;;;;;;;0.50;0.50;;;;;;;15.14;77.92;99514.19;5090551;28;20202;-64
2022/09/21 06:24:56;;;;;;;0.40;0.40;;;;;;;15.17;78.45;99519.19;5089848;28;20200;-64
2022/09/21 06:27:23;;;;;;;0.60;0.60;;;;;;;15.14;78.01;99514.19;5091064;28;20193;-64
2022/09/21 06:29:51;;;;;;;0.40;0.40;;;;;;;15.21;78.27;99515.56;5090912;28;20662;-64
2022/09/21 06:32:18;;;;;;;0.50;0.50;;;;;;;15.28;78.36;99513.53;5091219;28;20198;-64
2022/09/21 06:34:45;;;;;;;0.57;0.57;;;;;;;15.36;76.52;99520.00;5091043;28;20207;-64
2022/09/21 06:37:12;;;;;;;0.50;0.50;;;;;;;15.45;77.28;99522.13;5091124;28;20260;-64
2022/09/21 06:39:40;;;;;;;0.40;0.40;;;;;;;15.49;76.17;99515.94;5090785;28;20686;-65
2022/09/21 06:42:07;;;;;;;0.40;0.40;;;;;;;15.58;74.77;99531.00;5090846;28;20719;-64
2022/09/21 06:44:33;;;;;;;0.53;0.53;;;;;;;15.62;75.37;99529.94;5091032;28;20206;-64
2022/09/21 06:47:00;;;;;;;0.40;0.40;;;;;;;15.81;73.20;99534.22;5090575;28;20203;-64
2022/09/21 06:49:28;;;;;;;0.40;0.40;;;;;;;16.00;74.47;99528.06;5090940;28;20200;-65
2022/09/21 06:51:55;;;;;;;0.57;0.57;;;;;;;16.21;70.98;99533.91;5090392;28;20290;-64
2022/09/21 06:54:22;;;;;;;0.40;0.40;;;;;;;16.35;71.55;99531.44;5091083;28;20198;-65
2022/09/21 06:56:50;;;;;;;0.60;0.60;;;;;;;16.42;69.08;99535.38;5089075;28;20198;-64
2022/09/21 06:59:17;;;;;;;0.53;0.53;;;;;;;16.49;68.67;99534.16;5090688;28;20214;-64
2022/09/21 07:01:44;;;;;;;0.50;0.50;;;;;;;16.66;69.38;99534.16;5094466;28;20191;-64
2022/09/21 07:04:11;;;;;;;0.30;0.30;;;;;;;16.71;67.88;99539.06;5094258;28;20290;-64
2022/09/21 07:06:37;;;;;;;0.53;0.53;;;;;;;16.76;66.82;99537.91;5094494;28;20698;-64
2022/09/21 07:09:04;;;;;;;0.33;0.33;;;;;;;16.82;67.31;99535.91;5093065;28;20195;-65
2022/09/21 07:11:31;;;;;;;0.40;0.40;;;;;;;16.85;65.59;99540.91;5094502;28;20691;-64
2022/09/21 07:13:59;;;;;;;0.47;0.47;;;;;;;16.92;65.76;99534.50;5094324;28;20303;-64
2022/09/21 07:16:26;;;;;;;0.50;0.50;;;;;;;17.01;65.51;99541.78;5094524;28;20583;-64
2022/09/21 07:18:54;;;;;;;0.40;0.40;;;;;;;16.92;64.94;99512.03;5094001;28;20215;-65
2022/09/21 07:21:21;;;;;;;0.50;0.50;;;;;;;17.18;65.64;99533.94;5093959;28;20191;-64
2022/09/21 07:23:48;;;;;;;0.50;0.50;;;;;;;17.33;64.33;99527.88;5094266;28;20203;-64
2022/09/21 07:26:15;;;;;;;0.40;0.40;;;;;;;17.52;63.24;99527.69;5094029;28;20682;-64
2022/09/21 07:28:42;;;;;;;0.50;0.50;;;;;;;17.73;63.33;99532.53;5093690;28;20252;-64
2022/09/21 07:31:13;;;;;;;0.40;0.40;;;;;;;18.00;62.55;99540.47;5094123;28;20199;-65
2022/09/21 07:33:41;;;;;;;4.07;2.00;;;;;;;18.24;59.62;99538.22;5089180;28;20227;-65
2022/09/21 07:36:10;;;;;;;0.60;0.60;;;;;;;18.34;59.73;99534.16;5093844;28;20261;-64
2022/09/21 07:38:38;;;;;;;2.47;1.17;;;;;;;18.25;58.66;99534.69;5094205;28;20854;-64
2022/09/21 07:41:05;;;;;;;0.77;0.77;;;;;;;18.27;56.27;99532.84;5093788;28;20203;-65
2022/09/21 07:43:32;;;;;;;0.87;0.87;;;;;;;18.25;58.99;99534.69;5093107;28;20203;-64
2022/09/21 07:46:00;;;;;;;0.60;0.60;;;;;;;18.25;59.86;99537.28;5093319;28;20257;-65
2022/09/21 07:48:29;;;;;;;2.50;2.50;;;;;;;18.16;59.57;99537.81;5092814;28;20236;-64
2022/09/21 07:51:03;;;;;;;0.60;0.60;;;;;;;18.24;58.26;99538.22;5093705;28;20287;-65
2022/09/21 07:53:30;;;;;;;0.40;0.40;;;;;;;18.48;58.70;99531.53;5093381;28;20191;-64
2022/09/21 07:56:01;;;;;;;0.80;0.80;;;;;;;18.92;56.71;99523.66;5093394;28;20290;-64
2022/09/21 08:01:12;;;;;;;0.40;0.40;;;;;;;19.30;53.79;99511.69;5093542;28;20198;-65
2022/09/21 08:03:40;;;;;;;0.50;0.50;;;;;;;19.44;52.98;99518.63;5093439;28;20199;-64
2022/09/21 08:06:08;;;;;;;0.47;0.47;;;;;;;19.46;53.92;99518.53;5093261;28;20252;-65
2022/09/21 08:08:34;;;;;;;0.80;0.80;;;;;;;19.53;54.32;99518.03;5093202;28;20227;-65
2022/09/21 08:11:03;;;;;;;0.37;0.37;;;;;;;19.64;52.64;99506.94;5092988;28;20626;-64
2022/09/21 08:13:29;;;;;;;0.50;0.50;;;;;;;19.73;52.50;99496.78;5092582;28;20224;-64
2022/09/21 08:16:00;;;;;;;1.90;1.90;;;;;;;19.96;52.94;99499.59;5093157;28;20671;-64
2022/09/21 08:18:28;;;;;;;0.40;0.40;;;;;;;20.16;52.13;99499.09;5093230;28;20575;-64
2022/09/21 08:20:57;;;;;;;0.40;0.40;;;;;;;20.34;48.46;99484.84;5087883;28;20270;-64
2022/09/21 08:23:27;;;;;;;0.40;0.40;;;;;;;20.53;50.73;99493.06;5093172;28;20199;-64
2022/09/21 08:25:59;;;;;;;0.40;0.40;;;;;;;20.57;48.68;99497.13;5092655;28;20636;-64
2022/09/21 08:28:25;;;;;;;0.53;0.53;;;;;;;20.70;49.11;99492.72;5092934;28;20195;-65
2022/09/21 08:30:52;;;;;;;0.30;0.30;;;;;;;20.80;46.74;99478.13;5093158;28;20274;-64
2022/09/21 08:33:19;;;;;;;0.37;0.37;;;;;;;20.99;47.35;99495.03;5093077;28;20193;-65
2022/09/21 08:35:52;;;;;;;0.30;0.30;;;;;;;21.06;46.61;99486.69;5092769;28;20202;-65
2022/09/21 08:38:21;;;;;;;0.40;0.40;;;;;;;21.11;46.70;99486.38;5092869;28;20215;-65
2022/09/21 08:40:48;;;;;;;0.33;0.33;;;;;;;21.06;47.57;99485.84;5092543;28;20701;-64
2022/09/21 08:43:30;;;;;;;0.30;0.30;;;;;;;21.06;48.22;99478.03;5092688;28;20199;-65
2022/09/21 08:45:58;;;;;;;0.40;0.40;;;;;;;21.01;49.69;99480.13;5089649;28;20218;-64
2022/09/21 08:48:29;;;;;;;0.33;0.33;;;;;;;20.99;47.34;99463.75;5092587;28;20241;-65
2022/09/21 08:51:00;;;;;;;0.30;0.30;;;;;;;21.00;47.10;99478.47;5085293;28;20206;-65
2022/09/21 08:53:33;;;;;;;0.30;0.30;;;;;;;20.93;47.60;99468.50;5092528;28;20212;-65
2022/09/21 08:56:00;;;;;;;0.30;0.30;;;;;;;20.82;46.96;99465.81;5092562;28;20202;-65
2022/09/21 08:58:29;;;;;;;0.30;0.30;;;;;;;20.61;47.36;99464.72;5092345;28;20712;-64
2022/09/21 09:01:17;;;;;;;0.40;0.40;;;;;;;20.39;48.13;99465.38;5092462;28;20570;-65
2022/09/21 09:04:09;;;;;;;0.50;0.50;;;;;;;20.39;50.10;99467.13;5092311;28;20689;-65
2022/09/21 09:06:43;;;;;;;0.43;0.43;;;;;;;20.49;48.21;99462.94;5088931;28;20195;-65
2022/09/21 09:09:36;;;;;;;0.20;0.20;;;;;;;20.50;44.55;99450.78;5088250;28;20525;-66
2022/09/21 09:12:26;;;;;;;0.37;0.37;;;;;;;20.75;47.22;99448.94;5089620;28;20198;-65
2022/09/21 09:15:34;;;;;;;0.30;0.30;;;;;;;20.99;46.20;99450.72;5088659;28;20304;-64
2022/09/21 09:18:09;;;;;;;0.50;0.50;;;;;;;20.93;50.26;99450.25;5080660;28;20193;-65
2022/09/21 09:20:39;;;;;;;0.40;0.40;;;;;;;20.94;46.68;99438.03;5089025;28;20219;-65
2022/09/21 09:23:12;;;;;;;0.33;0.33;;;;;;;21.06;46.37;99457.16;5090621;28;20544;-64
2022/09/21 09:25:43;;;;;;;0.37;0.37;;;;;;;20.92;46.80;99445.97;5089148;28;20205;-64
2022/09/21 09:28:23;;;;;;;0.30;0.30;;;;;;;20.90;45.65;99432.19;5088174;28;20296;-65
2022/09/21 09:30:58;;;;;;;0.30;0.30;;;;;;;20.98;45.95;99436.03;5090362;28;20214;-64
2022/09/21 09:33:30;;;;;;;0.30;0.30;;;;;;;21.03;46.61;99433.94;5088857;28;20194;-65
2022/09/21 09:36:02;;;;;;;0.30;0.30;;;;;;;21.15;46.42;99435.69;5088640;28;20665;-64
2022/09/21 09:38:33;;;;;;;0.33;0.33;;;;;;;21.33;46.52;99429.94;5089774;28;20583;-65
2022/09/21 09:41:27;;;;;;;0.30;0.30;;;;;;;21.54;46.27;99434.53;5086605;28;20202;-65
2022/09/21 09:44:06;;;;;;;0.30;0.30;;;;;;;21.71;42.67;99432.28;5089398;28;20206;-65
2022/09/21 09:46:44;;;;;;;0.40;0.40;;;;;;;21.74;43.46;99424.25;5089584;28;20195;-64
2022/09/21 09:49:28;;;;;;;0.20;0.20;;;;;;;21.83;44.65;99428.78;5089122;28;20436;-65
2022/09/21 09:51:55;;;;;;;0.30;0.30;;;;;;;22.00;44.01;99409.25;5090126;28;20205;-63
2022/09/21 09:54:26;;;;;;;0.40;0.40;;;;;;;22.23;44.65;99408.28;5090165;28;20575;-64
2022/09/21 09:56:54;;;;;;;0.30;0.30;;;;;;;22.48;43.45;99404.59;5089798;28;20211;-65
2022/09/21 09:59:30;;;;;;;0.20;0.20;;;;;;;22.32;41.96;99404.16;5089800;28;20218;-64
2022/09/21 10:02:02;;;;;;;0.20;0.20;;;;;;;22.33;41.30;99409.22;5090309;28;20211;-66
2022/09/21 10:04:29;;;;;;;0.40;0.40;;;;;;;22.26;42.02;99394.19;5089810;28;20207;-66
2022/09/21 10:06:56;;;;;;;0.30;0.30;;;;;;;22.27;42.19;99394.03;5090244;28;20651;-64
2022/09/21 10:09:28;;;;;;;0.20;0.20;;;;;;;22.23;40.46;99376.16;5089107;28;20196;-65
2022/09/21 10:12:00;;;;;;;0.30;0.30;;;;;;;21.92;40.84;99383.72;5089459;28;20203;-65
2022/09/21 10:14:31;;;;;;;0.30;0.30;;;;;;;21.82;40.79;99387.97;5086640;28;20236;-71
2022/09/21 10:17:03;;;;;;;0.20;0.20;;;;;;;21.66;42.11;99400.50;5087862;28;20447;-64
2022/09/21 10:19:31;;;;;;;0.30;0.30;;;;;;;21.70;42.78;99401.13;5087610;28;20604;-64
2022/09/21 10:21:59;;;;;;;0.37;0.37;;;;;;;21.53;41.35;99388.50;5086840;28;20222;-65
2022/09/21 10:24:29;;;;;;;0.30;0.30;;;;;;;21.62;43.77;99393.03;5086712;28;20195;-65
2022/09/21 10:27:06;;;;;;;0.30;0.30;;;;;;;21.76;42.91;99385.00;5089029;28;20210;-65
2022/09/21 10:29:40;;;;;;;0.30;0.30;;;;;;;21.68;42.24;99384.75;5087928;28;20242;-65
2022/09/21 10:32:20;;;;;;;0.40;0.40;;;;;;;21.57;43.89;99385.56;5087394;28;20280;-65
2022/09/21 10:35:12;;;;;;;0.50;0.50;;;;;;;21.61;42.65;99391.38;5088672;28;20638;-64
2022/09/21 10:37:41;;;;;;;0.30;0.30;;;;;;;21.75;42.79;99373.72;5090981;28;20203;-64
2022/09/21 10:40:26;;;;;;;0.50;0.50;;;;;;;21.78;44.00;99368.25;5092011;28;20302;-66
2022/09/21 10:42:57;;;;;;;0.30;0.30;;;;;;;21.86;40.58;99375.50;5090956;28;20206;-66
2022/09/21 10:45:26;;;;;;;0.30;0.30;;;;;;;21.69;41.56;99384.63;5092179;28;20207;-67
2022/09/21 10:47:56;;;;;;;0.40;0.40;;;;;;;21.54;41.25;99383.19;5091931;28;20640;-66
2022/09/21 10:50:27;;;;;;;0.30;0.30;;;;;;;21.52;40.56;99372.00;5091614;28;20205;-67
2022/09/21 10:52:59;;;;;;;0.40;0.40;;;;;;;21.62;42.09;99375.59;5091784;28;20233;-66
2022/09/21 10:55:28;;;;;;;0.40;0.40;;;;;;;21.69;40.63;99374.19;5092163;28;20198;-66
2022/09/21 10:57:57;;;;;;;0.50;0.50;;;;;;;21.62;41.14;99367.75;5090990;28;20575;-67
2022/09/21 11:00:37;;;;;;;0.20;0.20;;;;;;;21.78;42.10;99368.25;5091797;28;20632;-66
2022/09/21 11:03:32;;;;;;;0.40;0.40;;;;;;;21.75;40.92;99373.72;5090465;28;20690;-67
2022/09/21 11:06:04;;;;;;;0.30;0.30;;;;;;;21.66;41.30;99363.97;5091094;28;20203;-66
2022/09/21 11:08:36;;;;;;;0.30;0.30;;;;;;;21.61;41.13;99365.28;5090870;28;20290;-66
2022/09/21 11:11:20;;;;;;;0.40;0.40;;;;;;;21.37;41.70;99367.97;5090703;28;20654;-66
2022/09/21 11:13:55;;;;;;;0.33;0.33;;;;;;;21.06;41.63;99369.38;5090536;28;20234;-67
2022/09/21 11:16:31;;;;;;;0.40;0.40;;;;;;;21.03;42.68;99366.16;5090816;28;20213;-66
2022/09/21 11:19:03;;;;;;;0.50;0.50;;;;;;;21.15;42.79;99358.31;5091340;28;20221;-63
2022/09/21 11:21:39;;;;;;;0.57;0.57;;;;;;;21.01;42.22;99368.88;5092988;28;20206;-65
2022/09/21 11:24:22;;;;;;;0.40;0.40;;;;;;;21.03;44.03;99353.13;5092627;28;20560;-64
2022/09/21 11:26:54;;;;;;;0.40;0.40;;;;;;;21.10;42.55;99363.00;5091042;28;20263;-64
2022/09/21 11:29:31;;;;;;;0.33;0.33;;;;;;;21.01;44.11;99341.97;5090532;28;20301;-65
2022/09/21 11:32:25;;;;;;;0.40;0.40;;;;;;;21.23;43.41;99349.88;5088293;28;20198;-64
2022/09/21 11:35:25;;;;;;;0.40;0.40;;;;;;;21.30;42.81;99351.09;5090997;28;20325;-65
2022/09/21 11:38:04;;;;;;;0.40;0.40;;;;;;;21.32;42.21;99338.81;5087417;28;20303;-66
2022/09/21 11:40:42;;;;;;;0.30;0.30;;;;;;;21.50;43.66;99337.41;5091125;28;20277;-66
2022/09/21 11:43:24;;;;;;;0.37;0.37;;;;;;;21.74;41.10;99350.38;5088755;28;20709;-65
2022/09/21 11:46:06;;;;;;;0.57;0.57;;;;;;;21.96;42.94;99346.00;5081224;28;20212;-65
2022/09/21 11:48:49;;;;;;;0.30;0.30;;;;;;;21.93;41.87;99345.41;5086307;28;20207;-67
2022/09/21 11:51:38;;;;;;;0.30;0.30;;;;;;;21.87;42.58;99344.06;5080505;28;20206;-67
2022/09/21 11:54:30;;;;;;;0.30;0.30;;;;;;;21.93;41.30;99351.47;5078452;28;20611;-66
2022/09/21 11:57:04;;;;;;;0.30;0.30;;;;;;;21.90;42.09;99351.72;5083676;28;20204;-67
2022/09/21 11:59:54;;;;;;;0.40;0.40;;;;;;;21.90;37.61;99343.88;5085600;28;20588;-67